Tyler, TX (75703)

7:47 AM CST on December 03, 2016 (GMT -0600)
Tyler | | Change Station

Elev 0 ft 32.26 °N, 95.32 °W | Updated 9 minutes ago

Heavy Rain
Heavy Rain Mist
48.7 °F
Feels Like 49 °F
N
1.2
Wind Variable Wind from East
Gusts 3.7 mph

Today
High -- | Low -- °F
--% Chance of Precip.
Yesterday
High -- | Low -- °F
Precip. -- in
Pressure 30.10 in
Visibility 4.0 miles
Clouds Mostly Cloudy 500 ft
Mostly Cloudy 4300 ft
Overcast 6000 ft
Windchill 49 °F
Dew Point 46 °F
Humidity 89%
Rainfall 0.95 in
Snow Depth Not available.
7:06 AM 5:15 PM
Waxing Crescent, 15% visible
SPECI KTYR 031339Z 06009KT 4SM +RA BR BKN005 BKN043 OVC060 09/08 A3010 RMK AO2 P0021 T00890083
Pressure 30.10 in
Visibility 4.0 miles
Clouds Mostly Cloudy 500 ft
Mostly Cloudy 4300 ft
Overcast 6000 ft
Windchill 49 °F
Dew Point 46 °F
Humidity 89%
Rainfall 0.95 in
Snow Depth Not available.
7:06 AM 5:15 PM
Waxing Crescent, 15% visible
SPECI KTYR 031339Z 06009KT 4SM +RA BR BKN005 BKN043 OVC060 09/08 A3010 RMK AO2 P0021 T00890083

10-Day Weather Forecast

Almanac

Astronomy

Dec. 03, 2016 Rise Set
Actual Time
Civil Twilight
Nautical Twilight
Astronomical Twilight
Moon
Length of Visible Light
Length of Day
Tomorrow will be .
, % of the Moon is Illuminated

Today's Extremes

State Highs State Lows

Community

WunderPhotos

Upload Photos

1,955,446 photos uploaded!

WunderBlog® & News

Nearby

Air Quality

  Air Quality AQ Index Pollutant
Not available.

Snow Depth

Station Depth Elevation

Earthquake Activity

City Distance Mag. Time & Date
Minimum magnitude displayed is 2.5.

Coastal Water Temperatures

Place Temperature

Stations

Nearby Weather Stations

Station Location Temp. Windchill Dew Point Humidity Wind Precip. Elev Updated Type
                   

Watches & Warnings

There are currently no watches in effect.